createdAt,value
2016-06-03T00:00:13.279Z,16.92
2016-06-03T00:00:54.109Z,17.04
2016-06-03T00:02:25.409Z,16.99
2016-06-03T00:02:54.302Z,16.98
2016-06-03T00:05:09.416Z,16.94
2016-06-03T00:06:09.497Z,16.94
2016-06-03T00:07:22.203Z,16.84
2016-06-03T00:08:22.237Z,16.86
2016-06-03T00:09:09.505Z,16.89
2016-06-03T00:10:35.305Z,16.86
2016-06-03T00:11:22.291Z,16.91
2016-06-03T00:12:19.279Z,16.84
2016-06-03T00:13:19.297Z,16.8
2016-06-03T00:14:38.566Z,16.89
2016-06-03T00:15:19.350Z,16.82
2016-06-03T00:17:34.574Z,16.82
2016-06-03T00:18:34.608Z,16.86
2016-06-03T00:19:34.642Z,16.89
2016-06-03T00:20:34.661Z,16.89
2016-06-03T00:21:34.693Z,16.86
2016-06-03T00:22:34.728Z,16.76
2016-06-03T00:23:47.452Z,16.82
2016-06-03T00:24:34.749Z,16.74
2016-06-03T00:25:53.973Z,16.8
2016-06-03T00:26:36.238Z,16.8
2016-06-03T00:28:00.462Z,16.72
2016-06-03T00:28:44.247Z,16.69
2016-06-03T00:30:03.484Z,16.62
2016-06-03T00:30:57.033Z,16.69
2016-06-03T00:32:15.599Z,16.65
2016-06-03T00:32:53.914Z,16.69
2016-06-03T00:34:19.620Z,16.68
2016-06-03T00:35:03.622Z,16.66
2016-06-03T00:36:29.312Z,16.66
2016-06-03T00:37:16.362Z,16.66
2016-06-03T00:38:36.380Z,16.59
2016-06-03T00:39:29.367Z,16.58
2016-06-03T00:40:04.386Z,16.55
2016-06-03T00:41:03.748Z,16.59
2016-06-03T00:42:22.970Z,16.51
2016-06-03T00:43:13.206Z,16.65
2016-06-03T00:44:26.146Z,16.57
2016-06-03T00:45:06.977Z,16.58
2016-06-03T00:46:07.027Z,16.51
2016-06-03T00:47:10.169Z,16.59
2016-06-03T00:48:10.189Z,16.5
2016-06-03T00:49:10.207Z,16.57
2016-06-03T00:51:26.133Z,16.5
2016-06-03T00:52:45.483Z,16.46
2016-06-03T00:53:33.843Z,16.43
2016-06-03T00:54:26.173Z,16.55
2016-06-03T00:55:26.269Z,16.44
2016-06-03T00:56:26.210Z,16.44
2016-06-03T00:57:26.244Z,16.41
2016-06-03T00:58:26.278Z,16.41
2016-06-03T00:59:39.015Z,16.44
2016-06-03T01:00:26.329Z,16.34
2016-06-03T01:01:45.601Z,16.43
2016-06-03T01:02:26.351Z,16.44
2016-06-03T01:03:52.168Z,16.37
2016-06-03T01:04:26.403Z,16.46
2016-06-03T01:05:26.406Z,16.46
2016-06-03T01:06:39.174Z,16.47
2016-06-03T01:07:26.490Z,16.46
2016-06-03T01:08:45.761Z,16.36
2016-06-03T01:09:39.761Z,16.49
2016-06-03T01:10:52.797Z,16.4
2016-06-03T01:11:57.847Z,16.41
2016-06-03T01:12:57.864Z,16.44
2016-06-03T01:13:26.599Z,16.44
2016-06-03T01:14:26.633Z,16.46
2016-06-03T01:15:26.636Z,16.39
2016-06-03T01:16:26.655Z,16.39
2016-06-03T01:17:26.688Z,16.44
2016-06-03T01:18:39.441Z,16.4
2016-06-03T01:19:29.756Z,16.36
2016-06-03T01:20:45.980Z,16.31
2016-06-03T01:21:26.777Z,16.31
2016-06-03T01:22:52.470Z,16.26
2016-06-03T01:23:26.861Z,16.34
2016-06-03T01:24:26.832Z,16.31
2016-06-03T01:25:27.194Z,16.32
2016-06-03T01:26:26.900Z,16.29
2016-06-03T01:27:39.637Z,16.32
2016-06-03T01:28:26.937Z,16.28
2016-06-03T01:29:26.939Z,16.32
2016-06-03T01:30:26.957Z,16.31
2016-06-03T01:31:39.741Z,16.31
2016-06-03T01:32:27.119Z,16.32
2016-06-03T01:33:28.465Z,16.26
2016-06-03T01:34:28.468Z,16.22
2016-06-03T01:35:39.799Z,16.22
2016-06-03T01:36:27.114Z,16.25
2016-06-03T01:37:27.132Z,16.29
2016-06-03T01:38:39.901Z,16.18
2016-06-03T01:39:28.575Z,16.25
2016-06-03T01:40:40.048Z,16.29
2016-06-03T01:41:30.237Z,16.31
2016-06-03T01:42:27.239Z,16.26
2016-06-03T01:43:27.258Z,16.28
2016-06-03T01:44:58.576Z,16.24
2016-06-03T01:45:42.514Z,16.24
2016-06-03T01:46:42.735Z,16.21
2016-06-03T01:47:42.566Z,16.21
2016-06-03T01:48:55.305Z,16.24
2016-06-03T01:49:42.602Z,16.24
2016-06-03T01:50:55.374Z,16.17
2016-06-03T01:51:42.639Z,16.21
2016-06-03T01:53:13.958Z,16.18
2016-06-03T01:53:42.676Z,16.18
2016-06-03T01:54:43.959Z,16.17
2016-06-03T01:55:43.024Z,16.06
2016-06-03T01:56:42.762Z,16.09
2016-06-03T01:57:42.780Z,16
2016-06-03T01:58:42.798Z,16.1
2016-06-03T01:59:42.957Z,16.06
2016-06-03T02:00:42.835Z,16.08
2016-06-03T02:01:42.869Z,16.05
2016-06-03T02:02:55.641Z,15.94
2016-06-03T02:03:55.659Z,16
2016-06-03T02:04:42.924Z,15.96
2016-06-03T02:05:42.926Z,15.91
2016-06-03T02:06:55.698Z,15.99
2016-06-03T02:07:42.995Z,16.02
2016-06-03T02:08:45.981Z,15.81
2016-06-03T02:09:43.891Z,15.88
2016-06-03T02:10:43.159Z,15.87
2016-06-03T02:12:02.273Z,16.02
2016-06-03T02:12:43.117Z,15.87
2016-06-03T02:13:43.120Z,15.87
2016-06-03T02:14:55.907Z,15.83
2016-06-03T02:15:55.909Z,15.78
2016-06-03T02:17:02.397Z,15.7
2016-06-03T02:17:43.194Z,15.59
2016-06-03T02:19:10.308Z,15.48
2016-06-03T02:19:43.245Z,15.47
2016-06-03T02:20:43.280Z,15.26
2016-06-03T02:22:58.538Z,15.23
2016-06-03T02:23:58.524Z,15.12
2016-06-03T02:24:58.933Z,15.1
2016-06-03T02:26:11.186Z,15.04
2016-06-03T02:27:01.673Z,15.04
2016-06-03T02:27:58.488Z,15.04
2016-06-03T02:28:58.663Z,14.99
2016-06-03T02:30:11.447Z,14.85
2016-06-03T02:30:58.716Z,14.86
2016-06-03T02:31:58.734Z,14.78
2016-06-03T02:32:58.768Z,14.78
2016-06-03T02:33:58.818Z,14.81
2016-06-03T02:34:58.789Z,14.66
2016-06-03T02:36:01.854Z,14.53
2016-06-03T02:36:58.826Z,14.62
2016-06-03T02:37:58.859Z,14.55
2016-06-03T02:38:58.878Z,14.53
2016-06-03T02:40:11.506Z,14.59
2016-06-03T02:41:11.664Z,14.48
2016-06-03T02:42:24.620Z,14.45
2016-06-03T02:43:18.201Z,14.51
2016-06-03T02:45:02.081Z,14.49
2016-06-03T02:45:59.037Z,14.4
2016-06-03T02:46:59.118Z,14.38
2016-06-03T02:48:02.120Z,14.37
2016-06-03T02:49:11.810Z,14.49
2016-06-03T02:49:59.125Z,14.44
2016-06-03T02:50:59.144Z,14.41
2016-06-03T02:52:11.897Z,14.44
2016-06-03T02:53:02.211Z,14.49
2016-06-03T02:53:59.058Z,14.49
2016-06-03T02:54:59.749Z,14.45
2016-06-03T02:55:59.908Z,14.44
2016-06-03T02:56:59.254Z,14.37
2016-06-03T02:57:59.335Z,14.49
2016-06-03T02:59:12.041Z,14.53
2016-06-03T02:59:59.341Z,14.45
2016-06-03T03:01:25.015Z,14.51
2016-06-03T03:01:59.361Z,14.49
2016-06-03T03:03:30.676Z,14.56
2016-06-03T03:03:59.413Z,14.56
2016-06-03T03:04:59.494Z,14.63
2016-06-03T03:06:18.840Z,14.67
2016-06-03T03:07:02.797Z,14.56
2016-06-03T03:08:28.471Z,14.56
2016-06-03T03:09:15.551Z,14.63
2016-06-03T03:10:28.507Z,14.52
2016-06-03T03:12:03.045Z,14.63
2016-06-03T03:13:12.657Z,14.79
2016-06-03T03:13:25.313Z,14.71
2016-06-03T03:14:25.347Z,14.71
2016-06-03T03:15:38.100Z,14.87
2016-06-03T03:16:38.102Z,14.85
2016-06-03T03:17:51.076Z,15.05
2016-06-03T03:18:44.639Z,15.19
2016-06-03T03:21:12.615Z,15.27
2016-06-03T03:21:59.900Z,15.25
2016-06-03T03:22:59.934Z,15.26
2016-06-03T03:23:59.952Z,15.3
2016-06-03T03:25:25.861Z,15.26
2016-06-03T03:26:09.817Z,15.26
2016-06-03T03:27:09.866Z,15.19
2016-06-03T03:28:09.852Z,15.25
2016-06-03T03:29:09.918Z,15.07
2016-06-03T03:30:09.905Z,14.86
2016-06-03T03:31:09.938Z,14.81
2016-06-03T03:32:09.958Z,14.79
2016-06-03T03:33:22.694Z,14.67
2016-06-03T03:34:22.713Z,14.66
2016-06-03T03:35:35.684Z,14.63
2016-06-03T03:36:35.547Z,14.48
2016-06-03T03:37:41.345Z,14.56
2016-06-03T03:38:44.536Z,14.52
2016-06-03T03:39:44.914Z,14.52
2016-06-03T03:41:00.185Z,14.53
2016-06-03T03:42:00.250Z,14.68
2016-06-03T03:43:00.221Z,14.71
2016-06-03T03:44:03.255Z,14.79
2016-06-03T03:45:12.821Z,14.86
2016-06-03T03:46:06.573Z,14.9
2016-06-03T03:47:00.279Z,14.86
2016-06-03T03:49:35.628Z,15.05
2016-06-03T03:50:32.397Z,15.07
2016-06-03T03:51:32.337Z,15.12
2016-06-03T03:52:51.483Z,15.15
2016-06-03T03:54:00.923Z,15.15
2016-06-03T03:55:48.097Z,15.33
2016-06-03T03:57:01.040Z,15.43
2016-06-03T03:57:52.122Z,15.45
2016-06-03T03:59:51.346Z,15.55
2016-06-03T04:00:51.333Z,15.66
2016-06-03T04:03:06.604Z,15.76
2016-06-03T04:04:25.840Z,15.9
2016-06-03T04:06:41.065Z,16.06
2016-06-03T04:07:41.098Z,16.21
2016-06-03T04:08:41.133Z,16.18
2016-06-03T04:09:41.151Z,16.25
2016-06-03T04:10:41.168Z,16.36
2016-06-03T04:11:53.924Z,16.39
2016-06-03T04:12:53.959Z,16.43
2016-06-03T04:13:41.287Z,16.44
2016-06-03T04:15:00.448Z,16.41
2016-06-03T04:15:57.138Z,16.47
2016-06-03T04:16:57.250Z,16.37
2016-06-03T04:17:57.175Z,16.5
2016-06-03T04:19:09.928Z,16.51
2016-06-03T04:20:06.493Z,16.51
2016-06-03T04:21:22.902Z,16.55
2016-06-03T04:21:57.264Z,16.5
2016-06-03T04:23:22.939Z,16.73
2016-06-03T04:23:57.286Z,16.69
2016-06-03T04:25:59.884Z,16.83
2016-06-03T04:26:38.197Z,16.86
2016-06-03T04:27:12.589Z,16.91
2016-06-03T04:29:53.583Z,16.95
2016-06-03T04:30:27.817Z,17.01
2016-06-03T04:32:30.416Z,17.04
2016-06-03T04:33:08.919Z,17.09
2016-06-03T04:33:43.278Z,17.1
2016-06-03T04:35:58.552Z,17.04
2016-06-03T04:36:58.570Z,17.16
2016-06-03T04:38:06.276Z,17.16
2016-06-03T04:38:58.606Z,17.16
2016-06-03T04:40:18.579Z,17.28
2016-06-03T04:41:17.862Z,17.31
2016-06-03T04:42:29.974Z,17.39
2016-06-03T04:43:24.476Z,17.38
2016-06-03T04:43:58.745Z,17.34
2016-06-03T04:45:30.670Z,17.35
2016-06-03T04:46:00.219Z,17.44
2016-06-03T04:47:43.785Z,17.69
2016-06-03T04:48:00.240Z,17.76
2016-06-03T04:48:58.820Z,17.9
2016-06-03T04:49:58.855Z,17.98
2016-06-03T04:50:58.889Z,18.16
2016-06-03T04:51:58.923Z,18.57
2016-06-03T04:53:18.144Z,19.53
2016-06-03T04:54:08.366Z,20.44
2016-06-03T04:55:27.806Z,22.01
2016-06-03T04:56:02.528Z,22.8
2016-06-03T04:57:33.545Z,24.22
2016-06-03T04:58:11.923Z,24.66
2016-06-03T05:00:08.913Z,25.56
2016-06-03T05:00:21.569Z,25.49
2016-06-03T05:01:21.680Z,26.06
2016-06-03T05:02:24.638Z,26.22
2016-06-03T05:03:40.843Z,27.28
2016-06-03T05:04:27.939Z,27.79
2016-06-03T05:06:24.273Z,28.71
2016-06-03T05:07:02.588Z,28.67
2016-06-03T05:07:36.963Z,28.4
2016-06-03T05:09:11.296Z,28.5
2016-06-03T05:09:50.484Z,28.68
2016-06-03T05:11:15.490Z,29.39
2016-06-03T05:12:05.711Z,29.53
2016-06-03T05:13:25.323Z,29.43
2016-06-03T05:13:59.513Z,28.94
2016-06-03T05:14:59.548Z,28.74
2016-06-03T05:15:59.643Z,28.92
2016-06-03T05:16:59.567Z,29.22
2016-06-03T05:17:59.601Z,29.58
2016-06-03T05:19:18.823Z,29.96
2016-06-03T05:19:59.686Z,30.29
2016-06-03T05:21:26.797Z,30.62
2016-06-03T05:21:59.706Z,30.46
2016-06-03T05:24:02.978Z,30.95
2016-06-03T05:24:15.618Z,31.08
2016-06-03T05:25:15.542Z,31.23
2016-06-03T05:26:15.670Z,31.62
2016-06-03T05:27:15.720Z,32.04
2016-06-03T05:28:15.754Z,31.59
2016-06-03T05:29:15.756Z,31.45
2016-06-03T05:30:15.806Z,30.98
2016-06-03T05:31:15.841Z,30.39
2016-06-03T05:32:15.984Z,30.56
2016-06-03T05:33:15.907Z,30.96
2016-06-03T05:34:15.941Z,31.26
2016-06-03T05:35:15.960Z,31.51
2016-06-03T05:36:16.010Z,31.57
2016-06-03T05:37:16.059Z,31.26
2016-06-03T05:38:16.077Z,31.02
2016-06-03T05:39:17.533Z,30.92
2016-06-03T05:40:16.115Z,31.04
2016-06-03T05:41:16.226Z,31.14
2016-06-03T05:42:16.198Z,31.45
2016-06-03T05:43:16.248Z,31.74
2016-06-03T05:44:16.266Z,30.74
2016-06-03T05:45:16.299Z,30.51
2016-06-03T05:46:16.334Z,30.54
2016-06-03T05:47:16.430Z,30.26
2016-06-03T05:48:16.433Z,31
2016-06-03T05:49:16.451Z,31.29
2016-06-03T05:50:16.454Z,31.72
2016-06-03T05:51:16.504Z,32.07
2016-06-03T05:52:22.803Z,33
2016-06-03T05:53:16.586Z,33.5
2016-06-03T05:54:29.355Z,34.55
2016-06-03T05:55:22.780Z,34.98
2016-06-03T05:57:26.331Z,35.91
2016-06-03T05:58:26.350Z,36.14
2016-06-03T05:59:26.369Z,36.35
2016-06-03T06:00:26.402Z,36.11
2016-06-03T06:01:26.467Z,36.24
2016-06-03T06:02:26.502Z,36.16
2016-06-03T06:03:39.255Z,36.03
2016-06-03T06:04:39.288Z,35.93
2016-06-03T06:05:52.244Z,36.25
2016-06-03T06:06:48.919Z,36.51
2016-06-03T06:07:55.236Z,36
2016-06-03T06:09:01.724Z,34.53
2016-06-03T06:10:02.179Z,33.09
2016-06-03T06:11:15.214Z,32.27
2016-06-03T06:13:52.234Z,34.22
2016-06-03T06:14:33.049Z,34.89
2016-06-03T06:16:48.382Z,35.54
2016-06-03T06:17:48.432Z,35.66
2016-06-03T06:19:52.438Z,36.62
2016-06-03T06:20:24.378Z,36.75
2016-06-03T06:21:05.146Z,37.47
2016-06-03T06:23:07.793Z,36.55
2016-06-03T06:23:49.012Z,36.29
2016-06-03T06:24:23.342Z,36.24
2016-06-03T06:25:55.173Z,35.59
2016-06-03T06:26:26.879Z,35.74
2016-06-03T06:28:23.883Z,36.32
2016-06-03T06:28:42.821Z,36.18
2016-06-03T06:30:49.342Z,35.6
2016-06-03T06:31:36.689Z,35.53
2016-06-03T06:32:36.675Z,36
2016-06-03T06:33:36.725Z,36.11
2016-06-03T06:34:36.744Z,35.38
2016-06-03T06:35:56.061Z,34.63
2016-06-03T06:36:36.874Z,34.47
2016-06-03T06:37:36.861Z,33.84
2016-06-03T06:38:36.974Z,33.88
2016-06-03T06:39:37.398Z,33.69
2016-06-03T06:40:37.323Z,33.61
2016-06-03T06:41:38.435Z,32.94
2016-06-03T06:42:37.124Z,33.23
2016-06-03T06:43:56.302Z,32.78
2016-06-03T06:44:38.537Z,33.44
2016-06-03T06:46:34.135Z,36.08
2016-06-03T06:47:12.522Z,36.6
2016-06-03T06:47:46.881Z,36.75
2016-06-03T06:50:21.440Z,37.34
2016-06-03T06:51:02.267Z,37.58
2016-06-03T06:52:02.344Z,38.39
2016-06-03T06:53:02.387Z,38.66
2016-06-03T06:54:02.431Z,37.91
2016-06-03T06:55:09.882Z,38.79
2016-06-03T06:56:21.723Z,38.87
2016-06-03T06:57:21.776Z,39.29
2016-06-03T06:59:02.710Z,39.98
2016-06-03T06:59:15.351Z,40.2
2016-06-03T07:01:44.098Z,40.54
2016-06-03T07:02:53.836Z,40.81
2016-06-03T07:03:50.528Z,40.78
2016-06-03T07:07:09.245Z,38.84
2016-06-03T07:07:53.214Z,39.22
2016-06-03T07:10:25.881Z,39.04
2016-06-03T07:11:35.448Z,38.23
2016-06-03T07:12:19.371Z,38.29
2016-06-03T07:13:45.093Z,38.66
2016-06-03T07:15:00.333Z,37.19
2016-06-03T07:15:29.395Z,36.62
2016-06-03T07:16:29.211Z,34.11
2016-06-03T07:17:38.947Z,32.78
2016-06-03T07:19:10.172Z,31.74
2016-06-03T07:19:51.594Z,31.47
2016-06-03T07:20:51.549Z,30.24
2016-06-03T07:21:51.677Z,29.18
2016-06-03T07:22:51.648Z,29.13
2016-06-03T07:24:10.888Z,29.46
2016-06-03T07:24:51.997Z,29.64
2016-06-03T07:26:18.050Z,30.1
2016-06-03T07:26:51.878Z,30.39
2016-06-03T07:28:23.118Z,31.47
2016-06-03T07:29:04.605Z,32.19
2016-06-03T07:29:51.902Z,33.26
2016-06-03T07:31:11.377Z,35.49
2016-06-03T07:32:21.129Z,36.06
2016-06-03T07:33:27.241Z,37.86
2016-06-03T07:34:36.852Z,38.51
2016-06-03T07:35:30.418Z,38.91
2016-06-03T07:36:45.671Z,38.47
2016-06-03T07:37:29.611Z,38.76
2016-06-03T07:38:48.848Z,39.22
2016-06-03T07:39:58.479Z,39.57
2016-06-03T07:40:43.291Z,39.78
2016-06-03T07:43:54.470Z,36.53
2016-06-03T07:44:54.676Z,35.71
2016-06-03T07:47:35.606Z,35.34
2016-06-03T07:48:09.968Z,35.47
2016-06-03T07:50:51.098Z,35.26
2016-06-03T07:51:25.351Z,35.64
2016-06-03T07:54:06.328Z,36.84
2016-06-03T07:54:41.813Z,36.85
2016-06-03T07:56:43.303Z,36.54
2016-06-03T07:57:21.680Z,36.13
2016-06-03T07:57:56.008Z,36.14
2016-06-03T07:59:58.622Z,36.33
2016-06-03T08:00:36.985Z,36.35
2016-06-03T08:01:11.347Z,36.31
2016-06-03T08:03:13.963Z,34.56
2016-06-03T08:03:52.306Z,34.93
2016-06-03T08:04:26.668Z,35.22
2016-06-03T08:05:26.686Z,35.94
2016-06-03T08:06:26.735Z,35.54
2016-06-03T08:07:26.769Z,34.13
2016-06-03T08:08:46.007Z,34.89
2016-06-03T08:09:26.853Z,35.2
2016-06-03T08:10:58.168Z,34.93
2016-06-03T08:11:26.937Z,34.35
2016-06-03T08:12:26.971Z,33.73
2016-06-03T08:13:27.192Z,33.65
2016-06-03T08:14:39.757Z,33.08
2016-06-03T08:15:46.276Z,32.57
2016-06-03T08:17:24.093Z,31.74
2016-06-03T08:18:02.565Z,31.44
2016-06-03T08:20:05.054Z,30.56
2016-06-03T08:20:17.851Z,30.54
2016-06-03T08:21:17.604Z,29.9
2016-06-03T08:22:19.216Z,29.35
2016-06-03T08:23:17.828Z,28.64
2016-06-03T08:24:17.862Z,27.78
2016-06-03T08:25:18.147Z,28.09
2016-06-03T08:26:30.680Z,28.09
2016-06-03T08:27:17.964Z,28.37
2016-06-03T08:28:30.592Z,28.89
2016-06-03T08:29:30.907Z,29.42
2016-06-03T08:30:43.738Z,29.57
2016-06-03T08:31:43.772Z,29.18
2016-06-03T08:32:27.571Z,28.65
2016-06-03T08:33:27.449Z,28.55
2016-06-03T08:34:29.076Z,28.08
2016-06-03T08:36:30.269Z,27.81
2016-06-03T08:36:42.769Z,27.78
2016-06-03T08:37:42.804Z,27.72
2016-06-03T08:38:55.557Z,27.61
2016-06-03T08:39:55.934Z,27.68
2016-06-03T08:40:42.905Z,27.79
2016-06-03T08:42:03.629Z,27.93
2016-06-03T08:42:55.692Z,27.78
2016-06-03T08:44:45.572Z,27.4
2016-06-03T08:45:11.013Z,27.47
2016-06-03T08:46:10.984Z,27.41
2016-06-03T08:47:23.783Z,27.79
2016-06-03T08:48:14.240Z,28.04
2016-06-03T08:49:36.757Z,28.08
2016-06-03T08:50:11.120Z,28.08
2016-06-03T08:51:42.451Z,27.98
2016-06-03T08:52:26.390Z,27.78
2016-06-03T08:53:26.424Z,27.38
2016-06-03T08:54:39.193Z,27.08
2016-06-03T08:55:27.133Z,26.98
2016-06-03T08:56:52.183Z,26.83
2016-06-03T08:57:26.545Z,26.91
2016-06-03T08:59:41.925Z,26.56
2016-06-03T09:01:01.084Z,26.49
2016-06-03T09:01:41.914Z,26.45
2016-06-03T09:03:54.702Z,26.82
2016-06-03T09:04:43.392Z,26.74
2016-06-03T09:06:51.632Z,26.64
2016-06-03T09:07:51.665Z,26.92
2016-06-03T09:08:59.402Z,27.16
2016-06-03T09:10:04.908Z,27.15
2016-06-03T09:11:17.426Z,27.01
2016-06-03T09:12:07.554Z,27.08
2016-06-03T09:14:07.091Z,26.97
2016-06-03T09:15:07.124Z,26.82
2016-06-03T09:16:19.987Z,26.44
2016-06-03T09:17:10.224Z,26.6
2016-06-03T09:18:19.946Z,26.53
2016-06-03T09:19:13.620Z,26.74
2016-06-03T09:20:10.295Z,26.88
2016-06-03T09:21:20.093Z,26.98
2016-06-03T09:22:07.315Z,26.92
2016-06-03T09:23:07.365Z,26.92
2016-06-03T09:24:07.399Z,26.71
2016-06-03T09:25:16.433Z,26.67
2016-06-03T09:26:10.513Z,26.53
2016-06-03T09:27:33.142Z,26.52
2016-06-03T09:28:20.362Z,26.66
2016-06-03T09:29:38.818Z,26.89
2016-06-03T09:30:33.228Z,26.7
2016-06-03T09:33:07.750Z,26.85
2016-06-03T09:37:11.011Z,26.46
2016-06-03T09:37:58.340Z,26.52
2016-06-03T09:38:58.186Z,26.68
2016-06-03T09:40:01.424Z,26.71
2016-06-03T09:40:58.707Z,26.96
2016-06-03T09:42:17.650Z,27.19
2016-06-03T09:43:01.588Z,27.33
2016-06-03T09:44:01.653Z,27.25
2016-06-03T09:45:03.063Z,27.26
2016-06-03T09:46:27.332Z,27.43
2016-06-03T09:47:20.914Z,27.44
2016-06-03T09:48:36.150Z,27.66
2016-06-03T09:49:04.869Z,27.9
2016-06-03T09:50:04.904Z,27.98
2016-06-03T09:51:17.674Z,27.81
2016-06-03T09:52:04.971Z,27.75
2016-06-03T09:53:24.211Z,27.83
2016-06-03T09:54:05.023Z,27.61
2016-06-03T09:56:26.734Z,27.72
2016-06-03T09:57:26.644Z,27.71
2016-06-03T09:58:57.974Z,27.43
2016-06-03T09:59:28.117Z,27.44
2016-06-03T10:00:27.090Z,27.67
2016-06-03T10:02:48.267Z,28.12
2016-06-03T10:04:01.066Z,28.37
2016-06-03T10:04:48.350Z,28.13
2016-06-03T10:06:07.575Z,27.9
2016-06-03T10:06:57.731Z,27.83
2016-06-03T10:08:19.751Z,27.55
2016-06-03T10:09:01.204Z,27.47
2016-06-03T10:09:49.098Z,27.41
2016-06-03T10:11:07.572Z,27.5
2016-06-03T10:11:51.588Z,27.76
2016-06-03T10:13:19.952Z,28.35
2016-06-03T10:13:50.030Z,28.38
2016-06-03T10:14:48.658Z,28.64
2016-06-03T10:15:51.707Z,28.67
2016-06-03T10:16:48.788Z,28.6
2016-06-03T10:18:01.479Z,28.67
2016-06-03T10:19:01.529Z,28.46
2016-06-03T10:20:51.377Z,28.2
2016-06-03T10:21:16.771Z,28.31
2016-06-03T10:22:16.804Z,28.31
2016-06-03T10:23:29.620Z,28.38
2016-06-03T10:24:16.856Z,28.46
2016-06-03T10:25:42.437Z,28.1
2016-06-03T10:26:18.348Z,28.35
2016-06-03T10:27:16.975Z,28.57
2016-06-03T10:28:16.978Z,28.72
2016-06-03T10:29:29.745Z,28.46
2016-06-03T10:30:29.779Z,28.38
2016-06-03T10:31:42.751Z,28.65
2016-06-03T10:32:17.128Z,28.74
2016-06-03T10:33:48.428Z,28.37
2016-06-03T10:34:26.774Z,28.23
2016-06-03T10:36:48.155Z,28.28
2016-06-03T10:37:41.891Z,28.2
2016-06-03T10:38:41.942Z,28.09
2016-06-03T10:39:42.038Z,28.12
2016-06-03T10:40:41.838Z,28.22
2016-06-03T10:41:43.293Z,28.5
2016-06-03T10:42:49.718Z,28.71
2016-06-03T10:44:01.361Z,28.96
2016-06-03T10:44:54.848Z,29.06
2016-06-03T10:45:42.148Z,29.12
2016-06-03T10:46:42.182Z,29.18
2016-06-03T10:48:13.546Z,29.44
2016-06-03T10:48:57.546Z,29.28
2016-06-03T10:49:57.534Z,29.2
2016-06-03T10:51:16.758Z,29.05
2016-06-03T10:52:16.792Z,28.96
2016-06-03T10:53:28.965Z,28.65
2016-06-03T10:53:57.653Z,28.72
2016-06-03T10:54:57.704Z,28.8
2016-06-03T10:55:57.831Z,28.89
2016-06-03T10:56:57.834Z,28.92
2016-06-03T10:58:00.477Z,29
2016-06-03T10:59:00.823Z,29.02
2016-06-03T11:00:04.107Z,29.15
2016-06-03T11:00:57.875Z,29.39
2016-06-03T11:02:10.709Z,29.61
2016-06-03T11:02:57.912Z,29.58
2016-06-03T11:04:17.167Z,29.57
2016-06-03T11:04:57.995Z,29.62
2016-06-03T11:05:59.420Z,29.64
2016-06-03T11:06:58.032Z,29.61
2016-06-03T11:07:58.066Z,29.62
2016-06-03T11:08:58.116Z,29.16
2016-06-03T11:10:00.369Z,29.28
2016-06-03T11:11:11.936Z,29.13
2016-06-03T11:12:04.514Z,29.12
2016-06-03T11:12:58.330Z,28.96
2016-06-03T11:14:10.991Z,28.77
2016-06-03T11:15:11.087Z,28.72
2016-06-03T11:16:24.106Z,28.56
2016-06-03T11:17:24.062Z,28.46
2016-06-03T11:18:29.690Z,28.33
2016-06-03T11:19:11.146Z,28.4
2016-06-03T11:19:58.458Z,28.43
2016-06-03T11:22:08.123Z,28.19
2016-06-03T11:23:08.156Z,28.09
2016-06-03T11:24:20.924Z,28.22
2016-06-03T11:25:20.942Z,28.38
2016-06-03T11:26:08.415Z,28.43
2016-06-03T11:27:33.949Z,28.46
2016-06-03T11:28:43.592Z,28.47
2016-06-03T11:29:27.532Z,28.41
2016-06-03T11:32:39.805Z,28.04
2016-06-03T11:33:11.589Z,28.01
2016-06-03T11:34:08.561Z,28.08
2016-06-03T11:35:14.892Z,28.16
2016-06-03T11:36:21.239Z,28.22
2016-06-03T11:37:11.694Z,28.01
2016-06-03T11:38:34.400Z,27.76
2016-06-03T11:39:08.762Z,27.81
2016-06-03T11:40:41.577Z,27.83
2016-06-03T11:41:17.658Z,27.79
2016-06-03T11:43:17.194Z,27.88
2016-06-03T11:43:49.163Z,27.86
2016-06-03T11:44:29.978Z,27.78
2016-06-03T11:47:10.908Z,27.73
2016-06-03T11:47:45.299Z,27.78
2016-06-03T11:49:51.633Z,27.93
2016-06-03T11:50:46.932Z,28.06
2016-06-03T11:52:04.607Z,28.09
2016-06-03T11:52:48.562Z,28.04
2016-06-03T11:54:07.799Z,27.79
2016-06-03T11:55:23.023Z,28.1
2016-06-03T11:56:19.557Z,28.34
2016-06-03T11:57:06.948Z,28.18
2016-06-03T11:58:26.345Z,28.12
2016-06-03T11:59:08.438Z,28.19
2016-06-03T12:00:35.803Z,28.23
2016-06-03T12:01:06.912Z,28.04
2016-06-03T12:03:09.701Z,27.83
2016-06-03T12:03:47.858Z,28
2016-06-03T12:04:22.375Z,28.06
2016-06-03T12:06:24.991Z,27.79
2016-06-03T12:07:03.444Z,27.73
2016-06-03T12:07:37.805Z,27.79
2016-06-03T12:10:18.766Z,27.83
2016-06-03T12:10:53.422Z,27.98
2016-06-03T12:11:53.161Z,27.97
2016-06-03T12:13:05.913Z,28.04
2016-06-03T12:14:26.622Z,27.79
2016-06-03T12:15:12.327Z,27.79
2016-06-03T12:16:21.955Z,27.79
2016-06-03T12:17:31.441Z,27.85
2016-06-03T12:18:15.399Z,27.9
2016-06-03T12:20:12.388Z,27.95
2016-06-03T12:21:16.968Z,28.19
2016-06-03T12:21:48.890Z,28.16
2016-06-03T12:22:32.846Z,28.23
2016-06-03T12:24:29.852Z,28.28
2016-06-03T12:24:45.524Z,28.28
2016-06-03T12:25:58.370Z,28.22
2016-06-03T12:26:45.576Z,28.12
2016-06-03T12:29:57.881Z,27.95
2016-06-03T12:30:32.884Z,27.81
2016-06-03T12:32:41.904Z,27.93
2016-06-03T12:33:41.939Z,28.12
2016-06-03T12:35:57.350Z,28.19
2016-06-03T12:36:57.243Z,28.12
2016-06-03T12:39:13.236Z,28.22
2016-06-03T12:40:16.925Z,28.01
2016-06-03T12:41:16.444Z,28
2016-06-03T12:42:47.744Z,27.9
2016-06-03T12:43:57.387Z,27.83
2016-06-03T12:44:31.733Z,27.71
2016-06-03T12:45:31.799Z,27.85
2016-06-03T12:46:44.536Z,27.93
2016-06-03T12:47:34.851Z,28.04
2016-06-03T12:48:51.666Z,28.31
2016-06-03T12:49:31.935Z,28.52
2016-06-03T12:51:03.202Z,28.35
2016-06-03T12:51:41.502Z,28.38
2016-06-03T12:53:51.367Z,28.38
2016-06-03T12:54:54.948Z,28.52
2016-06-03T12:55:59.887Z,28.75
2016-06-03T12:57:55.987Z,28.78
2016-06-03T12:58:10.128Z,28.78
2016-06-03T12:59:10.146Z,28.67
2016-06-03T13:00:10.149Z,28.72
2016-06-03T13:01:22.951Z,28.96
2016-06-03T13:02:17.922Z,29.02
2016-06-03T13:03:41.550Z,28.77
2016-06-03T13:04:25.522Z,28.74
2016-06-03T13:05:51.212Z,28.67
2016-06-03T13:06:35.153Z,28.55
2016-06-03T13:08:00.952Z,28.62
2016-06-03T13:08:47.954Z,28.56
2016-06-03T13:10:06.941Z,28.49
2016-06-03T13:10:57.554Z,28.57
2016-06-03T13:11:50.931Z,28.64
2016-06-03T13:14:33.314Z,28.7
2016-06-03T13:15:07.674Z,28.75
2016-06-03T13:17:48.650Z,28.71
2016-06-03T13:18:22.966Z,28.78
2016-06-03T13:20:25.893Z,28.71
2016-06-03T13:20:38.565Z,28.83
2016-06-03T13:21:38.599Z,28.87
2016-06-03T13:22:57.774Z,28.87
2016-06-03T13:23:39.916Z,28.72
2016-06-03T13:25:10.451Z,28.87
2016-06-03T13:25:41.984Z,28.8
2016-06-03T13:28:19.618Z,28.77
2016-06-03T13:30:34.857Z,28.62
2016-06-03T13:31:34.876Z,28.75
2016-06-03T13:32:47.643Z,29.09
2016-06-03T13:33:47.631Z,29.15
2016-06-03T13:34:34.946Z,29.43
2016-06-03T13:35:38.136Z,29.64
2016-06-03T13:36:38.140Z,30.06
2016-06-03T13:37:38.173Z,30.32
2016-06-03T13:38:51.192Z,30.36
2016-06-03T13:39:38.225Z,30.35
2016-06-03T13:40:38.322Z,30.24
2016-06-03T13:41:51.089Z,30.36
2016-06-03T13:43:09.624Z,30.06
2016-06-03T13:44:09.658Z,29.96
2016-06-03T13:44:41.644Z,29.67
2016-06-03T13:46:51.260Z,29.34
2016-06-03T13:47:51.308Z,29.35
2016-06-03T13:48:51.344Z,29.55
2016-06-03T13:50:04.830Z,29.35
2016-06-03T13:50:52.864Z,29.4
2016-06-03T13:52:17.119Z,29.43
2016-06-03T13:52:51.479Z,29.13
2016-06-03T13:53:53.107Z,28.97
2016-06-03T13:54:52.282Z,29.18
2016-06-03T13:55:51.752Z,29.43
2016-06-03T13:56:51.740Z,29.64
2016-06-03T13:58:04.367Z,29.87
2016-06-03T13:58:52.979Z,29.86
2016-06-03T13:59:55.076Z,29.86
2016-06-03T14:01:04.515Z,29.86
2016-06-03T14:01:51.597Z,29.84
2016-06-03T14:02:51.849Z,29.76
2016-06-03T14:04:04.712Z,29.58
2016-06-03T14:04:51.839Z,29.58
2016-06-03T14:05:51.951Z,29.55
2016-06-03T14:06:51.923Z,29.69
2016-06-03T14:07:51.957Z,29.83
2016-06-03T14:09:04.820Z,29.74
2016-06-03T14:10:04.789Z,29.61
2016-06-03T14:10:52.075Z,29.53
2016-06-03T14:11:52.077Z,29.4
2016-06-03T14:12:52.126Z,29.2
2016-06-03T14:13:55.160Z,29.1
2016-06-03T14:14:52.210Z,29.09
2016-06-03T14:15:52.213Z,29.21
2016-06-03T14:16:52.434Z,29.53
2016-06-03T14:17:52.468Z,29.68